sensor_id;sensor_type;location;lat;lon;timestamp;temperature;humidity
47434;SHT31;33184;48.774;8.918;2022-07-23T00:02:54;23.82;54.59
47434;SHT31;33184;48.774;8.918;2022-07-23T00:08:15;23.71;55.07
47434;SHT31;33184;48.774;8.918;2022-07-23T00:13:36;23.64;55.60
47434;SHT31;33184;48.774;8.918;2022-07-23T00:18:56;23.67;55.86
47434;SHT31;33184;48.774;8.918;2022-07-23T00:24:17;23.61;55.88
47434;SHT31;33184;48.774;8.918;2022-07-23T00:29:37;23.53;55.98
47434;SHT31;33184;48.774;8.918;2022-07-23T00:34:58;23.40;56.65
47434;SHT31;33184;48.774;8.918;2022-07-23T00:40:19;23.36;56.72
47434;SHT31;33184;48.774;8.918;2022-07-23T00:45:40;23.38;56.52
47434;SHT31;33184;48.774;8.918;2022-07-23T00:51:01;23.37;56.87
47434;SHT31;33184;48.774;8.918;2022-07-23T00:56:22;23.46;56.53
47434;SHT31;33184;48.774;8.918;2022-07-23T01:01:46;23.47;56.29
47434;SHT31;33184;48.774;8.918;2022-07-23T01:07:09;23.23;57.32
47434;SHT31;33184;48.774;8.918;2022-07-23T01:12:30;23.20;57.51
47434;SHT31;33184;48.774;8.918;2022-07-23T01:17:51;23.17;57.61
47434;SHT31;33184;48.774;8.918;2022-07-23T01:23:11;23.26;57.35
47434;SHT31;33184;48.774;8.918;2022-07-23T01:28:37;23.17;57.62
47434;SHT31;33184;48.774;8.918;2022-07-23T01:33:58;23.03;59.30
47434;SHT31;33184;48.774;8.918;2022-07-23T01:39:19;22.79;60.41
47434;SHT31;33184;48.774;8.918;2022-07-23T01:44:40;22.73;60.83
47434;SHT31;33184;48.774;8.918;2022-07-23T01:50:04;22.52;60.35
47434;SHT31;33184;48.774;8.918;2022-07-23T01:55:37;22.43;60.71
47434;SHT31;33184;48.774;8.918;2022-07-23T02:00:58;21.97;62.97
47434;SHT31;33184;48.774;8.918;2022-07-23T02:06:19;22.00;62.41
47434;SHT31;33184;48.774;8.918;2022-07-23T02:11:40;22.10;61.59
47434;SHT31;33184;48.774;8.918;2022-07-23T02:17:01;22.07;61.46
47434;SHT31;33184;48.774;8.918;2022-07-23T02:22:21;22.04;61.33
47434;SHT31;33184;48.774;8.918;2022-07-23T02:27:43;22.00;61.44
47434;SHT31;33184;48.774;8.918;2022-07-23T02:33:03;22.05;61.57
47434;SHT31;33184;48.774;8.918;2022-07-23T02:38:24;22.00;61.96
47434;SHT31;33184;48.774;8.918;2022-07-23T02:43:45;21.84;62.88
47434;SHT31;33184;48.774;8.918;2022-07-23T02:49:07;21.77;63.32
47434;SHT31;33184;48.774;8.918;2022-07-23T02:54:28;21.68;64.07
47434;SHT31;33184;48.774;8.918;2022-07-23T02:59:48;21.64;64.08
47434;SHT31;33184;48.774;8.918;2022-07-23T03:05:09;21.53;64.23
47434;SHT31;33184;48.774;8.918;2022-07-23T03:10:30;21.30;65.07
47434;SHT31;33184;48.774;8.918;2022-07-23T03:15:51;21.22;65.33
47434;SHT31;33184;48.774;8.918;2022-07-23T03:21:13;21.19;65.16
47434;SHT31;33184;48.774;8.918;2022-07-23T03:26:33;21.10;65.48
47434;SHT31;33184;48.774;8.918;2022-07-23T03:31:54;21.03;65.69
47434;SHT31;33184;48.774;8.918;2022-07-23T03:37:16;21.06;65.31
47434;SHT31;33184;48.774;8.918;2022-07-23T03:42:36;21.13;64.96
47434;SHT31;33184;48.774;8.918;2022-07-23T03:47:58;21.16;64.75
47434;SHT31;33184;48.774;8.918;2022-07-23T03:53:18;21.23;64.39
47434;SHT31;33184;48.774;8.918;2022-07-23T03:58:40;21.29;64.23
47434;SHT31;33184;48.774;8.918;2022-07-23T04:04:01;21.23;64.41
47434;SHT31;33184;48.774;8.918;2022-07-23T04:09:22;21.29;64.17
47434;SHT31;33184;48.774;8.918;2022-07-23T04:14:43;21.33;64.16
47434;SHT31;33184;48.774;8.918;2022-07-23T04:20:04;21.49;63.91
47434;SHT31;33184;48.774;8.918;2022-07-23T04:25:31;21.60;63.18
47434;SHT31;33184;48.774;8.918;2022-07-23T04:30:52;21.58;63.44
47434;SHT31;33184;48.774;8.918;2022-07-23T04:36:15;21.60;63.15
47434;SHT31;33184;48.774;8.918;2022-07-23T04:41:35;21.60;63.15
47434;SHT31;33184;48.774;8.918;2022-07-23T04:46:56;21.64;63.13
47434;SHT31;33184;48.774;8.918;2022-07-23T04:52:18;21.68;63.95
47434;SHT31;33184;48.774;8.918;2022-07-23T04:57:39;21.61;64.56
47434;SHT31;33184;48.774;8.918;2022-07-23T05:03:00;21.56;64.59
47434;SHT31;33184;48.774;8.918;2022-07-23T05:08:22;21.68;63.98
47434;SHT31;33184;48.774;8.918;2022-07-23T05:13:48;21.90;63.52
47434;SHT31;33184;48.774;8.918;2022-07-23T05:19:09;22.01;62.84
47434;SHT31;33184;48.774;8.918;2022-07-23T05:24:30;22.12;62.08
47434;SHT31;33184;48.774;8.918;2022-07-23T05:29:51;22.04;62.28
47434;SHT31;33184;48.774;8.918;2022-07-23T05:35:12;22.05;62.39
47434;SHT31;33184;48.774;8.918;2022-07-23T05:40:38;22.10;62.67
47434;SHT31;33184;48.774;8.918;2022-07-23T05:46:07;22.14;62.20
47434;SHT31;33184;48.774;8.918;2022-07-23T05:51:31;22.17;61.47
47434;SHT31;33184;48.774;8.918;2022-07-23T05:56:51;22.18;61.70
47434;SHT31;33184;48.774;8.918;2022-07-23T06:02:13;22.22;61.73
47434;SHT31;33184;48.774;8.918;2022-07-23T06:07:34;22.29;61.95
47434;SHT31;33184;48.774;8.918;2022-07-23T06:12:55;22.12;63.03
47434;SHT31;33184;48.774;8.918;2022-07-23T06:18:16;22.08;64.28
47434;SHT31;33184;48.774;8.918;2022-07-23T06:23:36;22.33;62.90
47434;SHT31;33184;48.774;8.918;2022-07-23T06:29:00;22.65;60.79
47434;SHT31;33184;48.774;8.918;2022-07-23T06:34:21;22.84;59.62
47434;SHT31;33184;48.774;8.918;2022-07-23T06:39:42;22.82;58.80
47434;SHT31;33184;48.774;8.918;2022-07-23T06:45:03;22.61;59.89
47434;SHT31;33184;48.774;8.918;2022-07-23T06:50:24;22.51;59.69
47434;SHT31;33184;48.774;8.918;2022-07-23T06:55:45;22.52;60.08
47434;SHT31;33184;48.774;8.918;2022-07-23T07:01:06;22.43;60.03
47434;SHT31;33184;48.774;8.918;2022-07-23T07:06:27;22.26;61.37
47434;SHT31;33184;48.774;8.918;2022-07-23T07:11:47;22.00;65.42
47434;SHT31;33184;48.774;8.918;2022-07-23T07:17:08;21.73;69.68
47434;SHT31;33184;48.774;8.918;2022-07-23T07:22:31;21.37;70.01
47434;SHT31;33184;48.774;8.918;2022-07-23T07:27:51;21.37;71.22
47434;SHT31;33184;48.774;8.918;2022-07-23T07:33:12;21.40;68.52
47434;SHT31;33184;48.774;8.918;2022-07-23T07:38:32;21.49;69.67
47434;SHT31;33184;48.774;8.918;2022-07-23T07:43:53;21.64;69.91
47434;SHT31;33184;48.774;8.918;2022-07-23T07:49:14;21.66;69.30
47434;SHT31;33184;48.774;8.918;2022-07-23T07:54:35;21.71;69.42
47434;SHT31;33184;48.774;8.918;2022-07-23T07:59:55;21.87;70.62
47434;SHT31;33184;48.774;8.918;2022-07-23T08:05:25;22.10;69.68
47434;SHT31;33184;48.774;8.918;2022-07-23T08:10:46;22.32;68.70
47434;SHT31;33184;48.774;8.918;2022-07-23T08:16:07;22.56;67.37
47434;SHT31;33184;48.774;8.918;2022-07-23T08:21:27;22.92;65.48
47434;SHT31;33184;48.774;8.918;2022-07-23T08:26:48;23.00;63.39
47434;SHT31;33184;48.774;8.918;2022-07-23T08:32:08;23.07;62.40
47434;SHT31;33184;48.774;8.918;2022-07-23T08:37:29;23.20;61.02
47434;SHT31;33184;48.774;8.918;2022-07-23T08:42:50;23.23;61.20
47434;SHT31;33184;48.774;8.918;2022-07-23T08:48:15;23.81;60.33
47434;SHT31;33184;48.774;8.918;2022-07-23T08:53:36;24.38;58.70
47434;SHT31;33184;48.774;8.918;2022-07-23T08:58:58;24.81;56.60
47434;SHT31;33184;48.774;8.918;2022-07-23T09:04:18;24.71;54.31
47434;SHT31;33184;48.774;8.918;2022-07-23T09:09:39;24.69;55.16
47434;SHT31;33184;48.774;8.918;2022-07-23T09:15:09;24.66;53.96
47434;SHT31;33184;48.774;8.918;2022-07-23T09:20:29;24.52;53.21
47434;SHT31;33184;48.774;8.918;2022-07-23T09:25:50;24.57;52.93
47434;SHT31;33184;48.774;8.918;2022-07-23T09:31:11;24.90;51.34
47434;SHT31;33184;48.774;8.918;2022-07-23T09:36:31;24.93;50.25
47434;SHT31;33184;48.774;8.918;2022-07-23T09:41:52;24.87;50.69
47434;SHT31;33184;48.774;8.918;2022-07-23T09:47:12;25.17;49.06
47434;SHT31;33184;48.774;8.918;2022-07-23T09:52:35;25.35;51.03
47434;SHT31;33184;48.774;8.918;2022-07-23T09:57:56;25.59;49.62
47434;SHT31;33184;48.774;8.918;2022-07-23T10:03:17;25.75;49.02
47434;SHT31;33184;48.774;8.918;2022-07-23T10:09:16;26.03;46.36
47434;SHT31;33184;48.774;8.918;2022-07-23T10:15:12;25.96;46.91
47434;SHT31;33184;48.774;8.918;2022-07-23T10:20:33;26.10;46.09
47434;SHT31;33184;48.774;8.918;2022-07-23T10:26:11;26.33;44.56
47434;SHT31;33184;48.774;8.918;2022-07-23T10:31:45;26.37;45.66
47434;SHT31;33184;48.774;8.918;2022-07-23T10:37:22;26.61;44.96
47434;SHT31;33184;48.774;8.918;2022-07-23T10:42:46;26.90;44.91
47434;SHT31;33184;48.774;8.918;2022-07-23T10:48:24;27.37;43.50
47434;SHT31;33184;48.774;8.918;2022-07-23T10:59:11;27.83;40.32
47434;SHT31;33184;48.774;8.918;2022-07-23T11:04:49;27.43;40.64
47434;SHT31;33184;48.774;8.918;2022-07-23T11:10:33;28.09;41.60
47434;SHT31;33184;48.774;8.918;2022-07-23T11:26:54;28.30;40.14
47434;SHT31;33184;48.774;8.918;2022-07-23T11:32:23;28.47;40.04
47434;SHT31;33184;48.774;8.918;2022-07-23T11:37:45;28.85;38.87
47434;SHT31;33184;48.774;8.918;2022-07-23T11:43:09;29.08;38.55
47434;SHT31;33184;48.774;8.918;2022-07-23T11:48:30;29.46;38.37
47434;SHT31;33184;48.774;8.918;2022-07-23T11:53:51;29.63;38.35
47434;SHT31;33184;48.774;8.918;2022-07-23T11:59:12;29.73;39.01
47434;SHT31;33184;48.774;8.918;2022-07-23T12:04:43;29.86;38.66
47434;SHT31;33184;48.774;8.918;2022-07-23T12:15:51;28.57;41.80
47434;SHT31;33184;48.774;8.918;2022-07-23T12:21:11;28.20;42.49
47434;SHT31;33184;48.774;8.918;2022-07-23T12:26:32;28.49;41.12
47434;SHT31;33184;48.774;8.918;2022-07-23T12:31:53;28.67;41.36
47434;SHT31;33184;48.774;8.918;2022-07-23T12:37:34;28.24;40.51
47434;SHT31;33184;48.774;8.918;2022-07-23T12:43:07;27.97;41.04
47434;SHT31;33184;48.774;8.918;2022-07-23T12:53:54;28.47;40.96
47434;SHT31;33184;48.774;8.918;2022-07-23T12:59:15;28.64;39.89
47434;SHT31;33184;48.774;8.918;2022-07-23T13:04:36;29.33;39.22
47434;SHT31;33184;48.774;8.918;2022-07-23T13:09:57;30.04;38.18
47434;SHT31;33184;48.774;8.918;2022-07-23T13:15:17;30.58;36.65
47434;SHT31;33184;48.774;8.918;2022-07-23T13:20:38;31.08;37.16
47434;SHT31;33184;48.774;8.918;2022-07-23T13:25:59;31.18;35.02
47434;SHT31;33184;48.774;8.918;2022-07-23T13:31:20;31.81;33.95
47434;SHT31;33184;48.774;8.918;2022-07-23T13:36:41;31.73;33.87
47434;SHT31;33184;48.774;8.918;2022-07-23T13:42:03;32.32;33.97
47434;SHT31;33184;48.774;8.918;2022-07-23T13:47:24;32.17;33.85
47434;SHT31;33184;48.774;8.918;2022-07-23T13:52:47;32.21;33.38
47434;SHT31;33184;48.774;8.918;2022-07-23T13:58:09;31.70;33.52
47434;SHT31;33184;48.774;8.918;2022-07-23T14:03:30;32.04;33.23
47434;SHT31;33184;48.774;8.918;2022-07-23T14:08:50;32.51;32.81
47434;SHT31;33184;48.774;8.918;2022-07-23T14:14:11;32.12;33.32
47434;SHT31;33184;48.774;8.918;2022-07-23T14:19:32;31.97;32.42
47434;SHT31;33184;48.774;8.918;2022-07-23T14:24:52;32.21;33.00
47434;SHT31;33184;48.774;8.918;2022-07-23T14:30:13;32.39;31.92
47434;SHT31;33184;48.774;8.918;2022-07-23T14:35:35;32.15;32.35
47434;SHT31;33184;48.774;8.918;2022-07-23T14:40:57;32.28;31.76
47434;SHT31;33184;48.774;8.918;2022-07-23T14:46:18;32.00;31.97
47434;SHT31;33184;48.774;8.918;2022-07-23T14:51:39;32.21;32.58
47434;SHT31;33184;48.774;8.918;2022-07-23T14:57:02;32.46;32.62
47434;SHT31;33184;48.774;8.918;2022-07-23T15:02:23;31.41;34.69
47434;SHT31;33184;48.774;8.918;2022-07-23T15:07:43;31.85;33.52
47434;SHT31;33184;48.774;8.918;2022-07-23T15:13:05;31.33;34.36
47434;SHT31;33184;48.774;8.918;2022-07-23T15:18:26;31.44;34.46
47434;SHT31;33184;48.774;8.918;2022-07-23T15:23:47;31.46;35.28
47434;SHT31;33184;48.774;8.918;2022-07-23T15:29:08;31.51;35.05
47434;SHT31;33184;48.774;8.918;2022-07-23T15:34:28;31.63;33.96
47434;SHT31;33184;48.774;8.918;2022-07-23T15:39:50;31.12;35.76
47434;SHT31;33184;48.774;8.918;2022-07-23T15:45:10;30.64;35.90
47434;SHT31;33184;48.774;8.918;2022-07-23T15:50:31;29.49;38.09
47434;SHT31;33184;48.774;8.918;2022-07-23T15:55:52;29.83;38.03
47434;SHT31;33184;48.774;8.918;2022-07-23T16:01:12;29.89;37.78
47434;SHT31;33184;48.774;8.918;2022-07-23T16:06:35;30.29;37.22
47434;SHT31;33184;48.774;8.918;2022-07-23T16:11:55;30.32;37.36
47434;SHT31;33184;48.774;8.918;2022-07-23T16:17:16;29.82;38.50
47434;SHT31;33184;48.774;8.918;2022-07-23T16:22:36;29.73;38.92
47434;SHT31;33184;48.774;8.918;2022-07-23T16:27:57;29.89;38.70
47434;SHT31;33184;48.774;8.918;2022-07-23T16:33:18;29.23;39.45
47434;SHT31;33184;48.774;8.918;2022-07-23T16:38:39;29.02;39.51
47434;SHT31;33184;48.774;8.918;2022-07-23T16:44:00;28.49;41.24
47434;SHT31;33184;48.774;8.918;2022-07-23T16:49:20;28.26;42.01
47434;SHT31;33184;48.774;8.918;2022-07-23T16:54:43;28.10;42.70
47434;SHT31;33184;48.774;8.918;2022-07-23T17:00:05;27.99;43.18
47434;SHT31;33184;48.774;8.918;2022-07-23T17:05:26;27.87;43.18
47434;SHT31;33184;48.774;8.918;2022-07-23T17:10:47;27.94;43.29
47434;SHT31;33184;48.774;8.918;2022-07-23T17:16:08;27.93;43.03
47434;SHT31;33184;48.774;8.918;2022-07-23T17:21:28;27.89;43.22
47434;SHT31;33184;48.774;8.918;2022-07-23T17:26:49;27.87;42.94
47434;SHT31;33184;48.774;8.918;2022-07-23T17:32:10;27.92;43.25
47434;SHT31;33184;48.774;8.918;2022-07-23T17:37:30;27.65;44.12
47434;SHT31;33184;48.774;8.918;2022-07-23T17:42:51;27.59;45.74
47434;SHT31;33184;48.774;8.918;2022-07-23T17:48:12;27.37;46.36
47434;SHT31;33184;48.774;8.918;2022-07-23T17:53:33;27.11;47.76
47434;SHT31;33184;48.774;8.918;2022-07-23T17:58:54;26.90;47.92
47434;SHT31;33184;48.774;8.918;2022-07-23T18:04:15;26.83;47.64
47434;SHT31;33184;48.774;8.918;2022-07-23T18:09:35;26.64;49.62
47434;SHT31;33184;48.774;8.918;2022-07-23T18:14:56;26.51;50.31
47434;SHT31;33184;48.774;8.918;2022-07-23T18:20:16;26.44;50.09
47434;SHT31;33184;48.774;8.918;2022-07-23T18:25:37;26.46;50.32
47434;SHT31;33184;48.774;8.918;2022-07-23T18:30:58;26.59;50.52
47434;SHT31;33184;48.774;8.918;2022-07-23T18:36:18;26.53;50.37
47434;SHT31;33184;48.774;8.918;2022-07-23T18:41:41;26.43;50.75
47434;SHT31;33184;48.774;8.918;2022-07-23T18:47:02;26.50;50.81
47434;SHT31;33184;48.774;8.918;2022-07-23T18:52:23;26.53;50.88
47434;SHT31;33184;48.774;8.918;2022-07-23T18:57:43;26.54;51.06
47434;SHT31;33184;48.774;8.918;2022-07-23T19:03:05;26.49;50.72
47434;SHT31;33184;48.774;8.918;2022-07-23T19:08:25;26.43;50.71
47434;SHT31;33184;48.774;8.918;2022-07-23T19:13:46;26.47;50.93
47434;SHT31;33184;48.774;8.918;2022-07-23T19:19:08;26.46;51.29
47434;SHT31;33184;48.774;8.918;2022-07-23T19:24:28;26.30;52.06
47434;SHT31;33184;48.774;8.918;2022-07-23T19:29:49;26.25;52.15
47434;SHT31;33184;48.774;8.918;2022-07-23T19:35:10;25.78;53.94
47434;SHT31;33184;48.774;8.918;2022-07-23T19:40:30;25.35;54.96
47434;SHT31;33184;48.774;8.918;2022-07-23T19:45:51;25.38;54.72
47434;SHT31;33184;48.774;8.918;2022-07-23T19:51:12;25.44;54.69
47434;SHT31;33184;48.774;8.918;2022-07-23T19:56:32;25.51;54.47
47434;SHT31;33184;48.774;8.918;2022-07-23T20:01:53;25.31;54.95
47434;SHT31;33184;48.774;8.918;2022-07-23T20:07:13;25.25;55.28
47434;SHT31;33184;48.774;8.918;2022-07-23T20:12:34;25.17;55.79
47434;SHT31;33184;48.774;8.918;2022-07-23T20:17:55;25.04;56.37
47434;SHT31;33184;48.774;8.918;2022-07-23T20:23:15;24.99;56.89
47434;SHT31;33184;48.774;8.918;2022-07-23T20:28:36;24.96;57.20
47434;SHT31;33184;48.774;8.918;2022-07-23T20:33:57;24.93;57.30
47434;SHT31;33184;48.774;8.918;2022-07-23T20:39:17;24.76;56.98
47434;SHT31;33184;48.774;8.918;2022-07-23T20:44:38;24.56;57.31
47434;SHT31;33184;48.774;8.918;2022-07-23T20:49:58;24.57;57.42
47434;SHT31;33184;48.774;8.918;2022-07-23T20:55:19;24.59;57.19
47434;SHT31;33184;48.774;8.918;2022-07-23T21:00:40;24.32;58.74
47434;SHT31;33184;48.774;8.918;2022-07-23T21:06:00;23.85;60.22
47434;SHT31;33184;48.774;8.918;2022-07-23T21:11:21;23.92;59.30
47434;SHT31;33184;48.774;8.918;2022-07-23T21:16:42;23.89;59.91
47434;SHT31;33184;48.774;8.918;2022-07-23T21:22:03;23.95;59.24
47434;SHT31;33184;48.774;8.918;2022-07-23T21:27:23;23.89;60.01
47434;SHT31;33184;48.774;8.918;2022-07-23T21:32:44;23.95;59.77
47434;SHT31;33184;48.774;8.918;2022-07-23T21:38:04;23.95;60.51
47434;SHT31;33184;48.774;8.918;2022-07-23T21:43:27;23.67;61.29
47434;SHT31;33184;48.774;8.918;2022-07-23T21:48:47;23.69;61.29
47434;SHT31;33184;48.774;8.918;2022-07-23T21:54:08;23.64;61.14
47434;SHT31;33184;48.774;8.918;2022-07-23T21:59:29;23.44;61.49
47434;SHT31;33184;48.774;8.918;2022-07-23T22:04:49;23.40;61.77
47434;SHT31;33184;48.774;8.918;2022-07-23T22:10:10;23.47;62.08
47434;SHT31;33184;48.774;8.918;2022-07-23T22:15:31;23.04;64.18
47434;SHT31;33184;48.774;8.918;2022-07-23T22:20:52;22.76;64.86
47434;SHT31;33184;48.774;8.918;2022-07-23T22:26:14;22.77;64.24
47434;SHT31;33184;48.774;8.918;2022-07-23T22:31:35;22.83;63.38
47434;SHT31;33184;48.774;8.918;2022-07-23T22:36:55;22.93;62.99
47434;SHT31;33184;48.774;8.918;2022-07-23T22:42:16;22.89;63.37
47434;SHT31;33184;48.774;8.918;2022-07-23T22:47:37;22.86;63.20
47434;SHT31;33184;48.774;8.918;2022-07-23T22:52:57;22.82;63.38
47434;SHT31;33184;48.774;8.918;2022-07-23T22:58:18;22.79;63.59
47434;SHT31;33184;48.774;8.918;2022-07-23T23:03:38;22.63;64.27
47434;SHT31;33184;48.774;8.918;2022-07-23T23:08:59;22.59;64.12
47434;SHT31;33184;48.774;8.918;2022-07-23T23:14:20;22.58;64.38
47434;SHT31;33184;48.774;8.918;2022-07-23T23:19:41;22.52;64.43
47434;SHT31;33184;48.774;8.918;2022-07-23T23:25:01;22.38;65.28
47434;SHT31;33184;48.774;8.918;2022-07-23T23:30:22;22.21;65.63
47434;SHT31;33184;48.774;8.918;2022-07-23T23:35:43;22.07;65.78
47434;SHT31;33184;48.774;8.918;2022-07-23T23:41:03;22.01;65.96
47434;SHT31;33184;48.774;8.918;2022-07-23T23:46:24;21.98;66.00
47434;SHT31;33184;48.774;8.918;2022-07-23T23:51:45;21.82;66.23
47434;SHT31;33184;48.774;8.918;2022-07-23T23:57:05;21.78;65.97
